Time;durP1;ratioP1;P1;durP2;ratioP2;P2;SDS_P1;SDS_P2;PMS_P1;PMS_P2;Temp;Humidity;BMP_temperature;BMP_pressure;BME280_temperature;BME280_humidity;BME280_pressure;Samples;Min_cycle;Max_cycle;Signal;HPM_P1;HPM_P2
2023/10/16 00:02:14;;;;;;;5.88;0.93;;;7.60;99.90;;;;;;5026291;28;20630;-74
2023/10/16 00:04:44;;;;;;;4.13;1.00;;;7.60;99.90;;;;;;5021349;28;20042;-72
2023/10/16 00:07:13;;;;;;;9.68;1.70;;;7.60;99.90;;;;;;5037918;28;20033;-72
2023/10/16 00:09:43;;;;;;;3.63;1.15;;;7.70;99.90;;;;;;5021024;28;20132;-74
2023/10/16 00:12:09;;;;;;;5.03;1.50;;;7.70;99.90;;;;;;5043470;28;20037;-71
2023/10/16 00:14:35;;;;;;;10.40;2.08;;;7.80;99.90;;;;;;5023038;28;20036;-71
2023/10/16 00:17:08;;;;;;;3.08;1.23;;;7.70;99.90;;;;;;5027493;28;20465;-72
2023/10/16 00:19:37;;;;;;;6.57;1.02;;;7.80;99.90;;;;;;5044542;28;20037;-74
2023/10/16 00:22:15;;;;;;;5.07;1.20;;;7.80;99.90;;;;;;5024176;28;20037;-72
2023/10/16 00:24:50;;;;;;;4.53;1.23;;;7.80;99.90;;;;;;5029581;28;20037;-72
2023/10/16 00:27:16;;;;;;;9.20;1.02;;;7.80;99.90;;;;;;5045261;28;20535;-72
2023/10/16 00:29:43;;;;;;;6.47;1.67;;;7.80;99.90;;;;;;5022922;28;20037;-71
2023/10/16 00:32:09;;;;;;;6.00;2.15;;;7.80;99.90;;;;;;5027434;28;20040;-71
2023/10/16 00:34:35;;;;;;;1.92;1.08;;;7.80;99.90;;;;;;5022883;28;20383;-72
2023/10/16 00:37:07;;;;;;;3.28;1.67;;;7.90;99.90;;;;;;5022193;28;20048;-71
2023/10/16 00:39:33;;;;;;;2.65;1.25;;;7.90;99.90;;;;;;5027222;28;20068;-72
2023/10/16 00:41:59;;;;;;;2.05;0.95;;;7.80;99.90;;;;;;5041271;28;20038;-73
2023/10/16 00:44:34;;;;;;;4.20;1.30;;;7.80;99.90;;;;;;5026418;28;20037;-72
2023/10/16 00:47:04;;;;;;;3.53;1.05;;;7.80;99.90;;;;;;5047043;28;20040;-72
2023/10/16 00:49:34;;;;;;;3.05;1.00;;;7.70;99.90;;;;;;5025169;28;20041;-72
2023/10/16 00:52:03;;;;;;;2.10;0.88;;;7.70;99.90;;;;;;5028927;28;20037;-72
2023/10/16 00:54:33;;;;;;;2.55;1.30;;;7.60;99.90;;;;;;5021538;28;20361;-72
2023/10/16 00:57:00;;;;;;;5.35;1.05;;;7.60;99.90;;;;;;5047211;28;20037;-72
2023/10/16 00:59:26;;;;;;;6.22;1.50;;;7.60;99.90;;;;;;5022304;28;20136;-72
2023/10/16 01:04:52;;;;;;;5.20;1.67;;;7.50;99.90;;;;;;4940877;28;20579;-72
2023/10/16 01:07:19;;;;;;;8.18;1.73;;;7.50;99.90;;;;;;5021816;28;20120;-72
2023/10/16 01:09:46;;;;;;;4.15;1.63;;;7.50;99.90;;;;;;5026306;28;20768;-72
2023/10/16 01:12:12;;;;;;;3.40;1.13;;;7.40;99.90;;;;;;5021229;28;20033;-73
2023/10/16 01:14:38;;;;;;;2.30;1.00;;;7.40;99.90;;;;;;5028848;28;20040;-72
2023/10/16 01:17:12;;;;;;;7.07;1.50;;;7.40;99.90;;;;;;5025112;28;20741;-71
2023/10/16 01:19:41;;;;;;;5.35;1.48;;;7.40;99.90;;;;;;5026073;28;20033;-73
2023/10/16 01:22:11;;;;;;;2.83;1.20;;;7.30;99.90;;;;;;5021833;28;20112;-72
2023/10/16 01:24:43;;;;;;;6.97;1.30;;;7.30;99.90;;;;;;5025438;28;20041;-72
2023/10/16 01:27:14;;;;;;;5.38;1.67;;;7.30;99.90;;;;;;5025595;28;20112;-72
2023/10/16 01:29:40;;;;;;;3.30;1.08;;;7.30;99.90;;;;;;5044018;28;20037;-72
2023/10/16 01:32:07;;;;;;;3.65;1.73;;;7.20;99.90;;;;;;5042894;28;20033;-73
2023/10/16 01:34:34;;;;;;;3.70;1.30;;;7.20;99.90;;;;;;5023698;28;20033;-72
2023/10/16 01:37:08;;;;;;;5.57;1.48;;;7.20;99.90;;;;;;5040065;28;20116;-72
2023/10/16 01:39:49;;;;;;;3.75;1.23;;;7.30;99.90;;;;;;5026408;28;20086;-72
2023/10/16 01:42:16;;;;;;;4.95;1.52;;;7.30;99.90;;;;;;5022511;28;20462;-74
2023/10/16 01:44:44;;;;;;;2.38;1.05;;;7.30;99.90;;;;;;5022620;28;20032;-73
2023/10/16 01:47:15;;;;;;;5.22;1.63;;;7.40;99.90;;;;;;5033568;28;20044;-71
2023/10/16 01:49:44;;;;;;;1.95;1.23;;;7.40;99.90;;;;;;5019008;28;20065;-72
2023/10/16 01:52:13;;;;;;;3.28;1.60;;;7.40;99.90;;;;;;5035518;28;20033;-73
2023/10/16 01:54:40;;;;;;;10.68;1.80;;;7.50;99.90;;;;;;5014996;28;20037;-71
2023/10/16 01:57:10;;;;;;;6.18;1.48;;;7.50;99.90;;;;;;5018064;28;20042;-72
2023/10/16 01:59:41;;;;;;;8.52;1.35;;;7.60;99.90;;;;;;5019128;28;20047;-72
2023/10/16 02:02:09;;;;;;;3.90;1.58;;;7.50;99.90;;;;;;5018138;28;20397;-72
2023/10/16 02:04:36;;;;;;;9.82;1.35;;;7.60;99.90;;;;;;5036777;28;20448;-73
2023/10/16 02:07:02;;;;;;;4.40;1.67;;;7.60;99.90;;;;;;5018012;28;20040;-71
2023/10/16 02:09:31;;;;;;;3.75;1.42;;;7.60;99.90;;;;;;5020778;28;20087;-72
2023/10/16 02:11:59;;;;;;;1.88;0.90;;;7.70;99.90;;;;;;5023059;28;20450;-72
2023/10/16 02:14:25;;;;;;;6.55;1.48;;;7.70;99.90;;;;;;5019303;28;20036;-72
2023/10/16 02:16:51;;;;;;;4.20;1.10;;;7.80;99.90;;;;;;5041295;28;20062;-72
2023/10/16 02:32:53;;;;;;;3.53;1.17;;;7.90;99.90;;;;;;5077473;28;20136;-72
2023/10/16 02:35:22;;;;;;;4.47;1.63;;;7.90;99.90;;;;;;5092820;28;20028;-73
2023/10/16 02:37:53;;;;;;;3.45;0.95;;;7.90;99.90;;;;;;5057683;28;20028;-72
2023/10/16 02:40:20;;;;;;;2.53;1.23;;;7.90;99.90;;;;;;5077307;28;20063;-72
2023/10/16 02:42:51;;;;;;;2.25;1.42;;;7.80;99.90;;;;;;5087531;28;20036;-72
2023/10/16 02:45:27;;;;;;;4.05;1.15;;;7.80;99.90;;;;;;5094086;27;20104;-72
2023/10/16 02:47:53;;;;;;;7.20;1.25;;;7.80;99.90;;;;;;5086306;28;20105;-72
2023/10/16 02:50:20;;;;;;;6.65;1.23;;;7.70;99.90;;;;;;5099324;27;20032;-73
2023/10/16 02:52:48;;;;;;;2.40;0.98;;;7.70;99.90;;;;;;5083892;28;20035;-72
2023/10/16 02:55:15;;;;;;;2.47;0.80;;;7.80;99.90;;;;;;5089809;28;20494;-72
2023/10/16 02:57:41;;;;;;;2.95;0.90;;;7.70;99.90;;;;;;5091272;28;20836;-72
2023/10/16 03:00:17;;;;;;;2.30;0.85;;;7.70;99.90;;;;;;5094755;28;20032;-73
2023/10/16 03:02:43;;;;;;;3.17;1.42;;;7.70;99.90;;;;;;5092645;28;20024;-72
2023/10/16 03:05:21;;;;;;;4.00;1.10;;;7.70;99.90;;;;;;5092642;27;20096;-72
2023/10/16 03:07:50;;;;;;;3.75;1.10;;;7.70;99.90;;;;;;5086534;28;20031;-72
2023/10/16 03:10:16;;;;;;;2.75;0.90;;;7.70;99.90;;;;;;5078139;28;20036;-73
2023/10/16 03:12:43;;;;;;;2.38;1.08;;;7.70;99.90;;;;;;5088876;28;20036;-71
2023/10/16 03:15:15;;;;;;;3.45;0.95;;;7.70;99.90;;;;;;5114128;27;20500;-73
2023/10/16 03:17:41;;;;;;;2.92;1.08;;;7.70;99.90;;;;;;5103116;27;20060;-72
2023/10/16 03:23:06;;;;;;;6.57;1.90;;;7.80;99.90;;;;;;5051631;28;20394;-73
2023/10/16 03:28:07;;;;;;;2.88;1.40;;;7.80;99.90;;;;;;5104673;27;20070;-72
2023/10/16 03:30:34;;;;;;;4.63;1.27;;;7.80;99.90;;;;;;5083684;28;20039;-72
2023/10/16 03:33:00;;;;;;;4.85;0.93;;;7.80;99.90;;;;;;5095520;28;20042;-73
2023/10/16 03:35:29;;;;;;;1.52;0.93;;;7.80;99.90;;;;;;5080499;28;20589;-72
2023/10/16 03:37:56;;;;;;;8.35;1.20;;;7.90;99.90;;;;;;5078692;28;20039;-74
2023/10/16 03:40:24;;;;;;;2.55;0.88;;;7.90;99.90;;;;;;5073136;28;20834;-72
2023/10/16 03:42:51;;;;;;;4.57;1.13;;;7.90;99.90;;;;;;5079416;28;20020;-73
2023/10/16 03:45:17;;;;;;;6.75;0.80;;;7.90;99.90;;;;;;5080834;28;20031;-73
2023/10/16 03:47:43;;;;;;;7.93;1.40;;;7.90;99.90;;;;;;5094484;28;20032;-72
2023/10/16 03:50:09;;;;;;;7.95;1.10;;;8.00;99.90;;;;;;5096518;28;20051;-73
2023/10/16 03:52:35;;;;;;;4.18;1.65;;;8.00;99.90;;;;;;5079324;28;20076;-73
2023/10/16 03:55:22;;;;;;;3.15;1.15;;;8.00;99.90;;;;;;5072769;28;20223;-72
2023/10/16 03:57:48;;;;;;;2.13;1.05;;;8.00;99.90;;;;;;5080358;28;20036;-73
2023/10/16 04:00:18;;;;;;;5.03;1.77;;;8.00;99.90;;;;;;5097901;28;20076;-72
2023/10/16 04:02:44;;;;;;;3.15;1.13;;;8.00;99.90;;;;;;5102686;28;20378;-72
2023/10/16 04:07:54;;;;;;;4.97;1.30;;;8.10;99.90;;;;;;5096758;28;20055;-71
2023/10/16 04:10:40;;;;;;;3.17;0.90;;;8.10;99.90;;;;;;5076973;28;20498;-73
2023/10/16 04:13:06;;;;;;;2.47;0.90;;;8.10;99.90;;;;;;5079969;28;20054;-72
2023/10/16 04:18:28;;;;;;;5.07;1.38;;;8.10;99.90;;;;;;5094581;28;20660;-72
2023/10/16 04:23:56;;;;;;;2.15;1.08;;;8.10;99.90;;;;;;5095745;28;20040;-72
2023/10/16 04:31:45;;;;;;;7.45;0.80;;;8.10;99.90;;;;;;5085981;28;20055;-71
2023/10/16 04:36:53;;;;;;;2.85;1.58;;;8.10;99.90;;;;;;5098391;28;20065;-72
2023/10/16 04:42:49;;;;;;;3.10;0.88;;;8.10;99.90;;;;;;5090643;28;20039;-73
2023/10/16 05:09:53;;;;;;;2.70;0.88;;;8.20;99.90;;;;;;5087612;28;20115;-71
2023/10/16 05:19:52;;;;;;;2.60;1.10;;;8.20;99.90;;;;;;5088043;28;20040;-71
2023/10/16 06:14:13;;;;;;;4.32;1.35;;;8.10;99.90;;;;;;5088085;28;20128;-70
2023/10/16 06:16:45;;;;;;;4.90;2.17;;;8.10;99.90;;;;;;5086767;28;20040;-71
2023/10/16 06:19:15;;;;;;;4.38;1.60;;;8.20;99.90;;;;;;5089011;28;20130;-70
2023/10/16 06:21:47;;;;;;;4.18;1.60;;;8.20;99.90;;;;;;5088612;28;20044;-71
2023/10/16 06:24:33;;;;;;;3.08;1.48;;;8.20;99.90;;;;;;5069145;28;20029;-70
2023/10/16 06:27:00;;;;;;;7.10;2.65;;;8.20;99.90;;;;;;5068655;28;20032;-71
2023/10/16 06:29:36;;;;;;;7.00;1.40;;;8.20;99.90;;;;;;5069410;28;20036;-71
2023/10/16 06:32:07;;;;;;;3.15;1.42;;;8.30;99.90;;;;;;5069082;28;20036;-72
2023/10/16 06:34:34;;;;;;;2.65;1.40;;;8.30;99.90;;;;;;5090805;28;20138;-72
2023/10/16 06:37:05;;;;;;;5.22;1.60;;;8.30;99.90;;;;;;5071509;28;20024;-71
2023/10/16 06:39:35;;;;;;;2.55;1.50;;;8.30;99.90;;;;;;5088585;28;20085;-71
2023/10/16 06:42:03;;;;;;;5.53;1.52;;;8.40;99.90;;;;;;5069390;28;20032;-72
2023/10/16 06:44:29;;;;;;;7.20;1.90;;;8.40;99.90;;;;;;5068510;28;20050;-72
2023/10/16 06:46:59;;;;;;;3.55;1.38;;;8.40;99.90;;;;;;5093549;28;20122;-71
2023/10/16 06:49:37;;;;;;;2.90;0.80;;;8.40;99.90;;;;;;5068728;28;20092;-72
2023/10/16 06:52:04;;;;;;;4.40;1.30;;;8.50;99.90;;;;;;5069461;28;20059;-71
2023/10/16 06:54:37;;;;;;;4.03;1.50;;;8.50;99.90;;;;;;5073034;28;20032;-71
2023/10/16 06:57:12;;;;;;;4.93;1.60;;;8.40;99.90;;;;;;5073790;28;20043;-71
2023/10/16 06:59:41;;;;;;;5.00;1.40;;;8.50;99.90;;;;;;5071359;28;20085;-71
2023/10/16 07:02:15;;;;;;;3.17;1.13;;;8.50;99.90;;;;;;5073288;28;20079;-71
2023/10/16 07:04:42;;;;;;;4.38;1.20;;;8.50;99.90;;;;;;5078953;28;20495;-71
2023/10/16 07:07:14;;;;;;;7.70;2.13;;;8.50;99.90;;;;;;5095654;28;20035;-71
2023/10/16 07:09:47;;;;;;;3.95;1.10;;;8.60;99.90;;;;;;5093720;28;20059;-71
2023/10/16 07:12:16;;;;;;;4.10;1.35;;;8.60;99.90;;;;;;5091875;28;20024;-71
2023/10/16 07:14:55;;;;;;;3.63;1.10;;;8.60;99.90;;;;;;5094884;28;20506;-72
2023/10/16 07:17:24;;;;;;;3.40;1.55;;;8.70;99.90;;;;;;5075567;28;20043;-71
2023/10/16 07:19:58;;;;;;;5.38;1.48;;;8.80;99.90;;;;;;5077768;28;20461;-72
2023/10/16 07:22:31;;;;;;;2.65;1.02;;;8.90;99.90;;;;;;5073349;28;20036;-71
2023/10/16 07:25:22;;;;;;;3.33;1.40;;;8.90;99.90;;;;;;5081590;28;20035;-72
2023/10/16 07:27:48;;;;;;;2.15;1.00;;;9.00;99.90;;;;;;5094874;28;20081;-71
2023/10/16 07:30:23;;;;;;;3.70;1.08;;;9.10;99.90;;;;;;5078099;28;20040;-71
2023/10/16 07:32:54;;;;;;;4.72;1.23;;;9.20;99.90;;;;;;5074474;28;20023;-71
2023/10/16 07:35:21;;;;;;;3.08;1.20;;;9.20;99.90;;;;;;5083759;28;20035;-72
2023/10/16 07:37:48;;;;;;;5.57;0.85;;;9.30;99.90;;;;;;5082344;28;20084;-70
2023/10/16 07:40:15;;;;;;;3.22;0.75;;;9.30;99.90;;;;;;5092956;28;20040;-71
2023/10/16 07:42:41;;;;;;;5.50;0.90;;;9.30;99.90;;;;;;5079837;28;20040;-70
2023/10/16 07:45:07;;;;;;;1.67;0.70;;;9.40;99.90;;;;;;5074660;28;20028;-71
2023/10/16 07:47:33;;;;;;;1.92;0.85;;;9.40;99.90;;;;;;5079555;28;20036;-71
2023/10/16 07:50:00;;;;;;;6.22;1.05;;;9.40;99.90;;;;;;5074936;28;20036;-71
2023/10/16 07:52:28;;;;;;;4.93;1.33;;;9.40;99.90;;;;;;5077822;28;20032;-71
2023/10/16 07:54:54;;;;;;;5.72;1.10;;;9.50;99.90;;;;;;5093535;28;20065;-71
2023/10/16 07:57:21;;;;;;;4.07;0.85;;;9.60;99.90;;;;;;5068123;28;20044;-71
2023/10/16 07:59:47;;;;;;;2.83;1.42;;;9.60;99.90;;;;;;5082549;28;20032;-71
2023/10/16 08:02:17;;;;;;;2.70;1.20;;;9.80;99.90;;;;;;5087094;28;20027;-71
2023/10/16 08:04:43;;;;;;;1.30;1.00;;;9.80;99.90;;;;;;5070530;28;20052;-71
2023/10/16 08:07:18;;;;;;;2.15;0.95;;;9.90;99.90;;;;;;5076818;28;20529;-71
2023/10/16 08:12:19;;;;;;;2.65;0.90;;;10.00;99.90;;;;;;5090517;28;20118;-71
2023/10/16 08:14:46;;;;;;;7.28;0.95;;;10.00;99.90;;;;;;5077638;28;20448;-71
2023/10/16 08:17:16;;;;;;;1.55;0.82;;;10.10;99.90;;;;;;5075285;28;20060;-71
2023/10/16 08:19:42;;;;;;;3.00;0.80;;;10.10;99.90;;;;;;5077760;28;20046;-71
2023/10/16 08:22:08;;;;;;;2.88;1.13;;;10.20;99.90;;;;;;5075455;28;20040;-71
2023/10/16 08:24:34;;;;;;;2.42;0.60;;;10.20;99.90;;;;;;5081120;28;20501;-72
2023/10/16 08:29:59;;;;;;;2.63;0.60;;;10.30;99.90;;;;;;5091556;28;20511;-70
2023/10/16 08:32:53;;;;;;;3.63;0.80;;;10.30;99.90;;;;;;5093228;28;20047;-72
2023/10/16 08:35:17;;;;;;;8.38;0.95;;;10.40;99.90;;;;;;5092987;28;20059;-71
2023/10/16 08:37:43;;;;;;;1.70;0.60;;;10.50;99.90;;;;;;5092559;28;20039;-71
2023/10/16 08:40:19;;;;;;;1.08;0.57;;;10.50;99.90;;;;;;5092631;28;20028;-71
2023/10/16 08:43:00;;;;;;;1.30;0.40;;;10.60;99.90;;;;;;5092813;28;20168;-70
2023/10/16 08:45:29;;;;;;;;;;;10.60;99.90;;;;;;5096335;28;20478;-72
2023/10/16 08:47:57;;;;;;;1.95;0.77;;;10.70;99.90;;;;;;5087423;28;19932;-70
2023/10/16 08:50:32;;;;;;;0.60;0.28;;;10.80;99.90;;;;;;5092381;28;20494;-73
2023/10/16 08:52:59;;;;;;;3.15;0.35;;;10.80;99.90;;;;;;5077668;28;20490;-73
2023/10/16 08:55:28;;;;;;;8.85;0.73;;;10.90;99.90;;;;;;5093234;28;20584;-72
2023/10/16 08:57:54;;;;;;;2.90;0.77;;;11.00;99.90;;;;;;5092434;28;20627;-71
2023/10/16 09:00:23;;;;;;;3.97;0.32;;;11.10;99.90;;;;;;5093466;28;20122;-71
2023/10/16 09:02:53;;;;;;;1.02;0.28;;;11.10;99.90;;;;;;5072561;28;20492;-71
2023/10/16 09:05:20;;;;;;;0.80;0.40;;;11.20;99.90;;;;;;5073905;28;20078;-71
2023/10/16 09:07:48;;;;;;;2.05;0.30;;;11.30;99.90;;;;;;5068324;28;20058;-71
2023/10/16 09:10:15;;;;;;;1.67;0.63;;;11.30;99.90;;;;;;5075402;28;20517;-71
2023/10/16 09:12:54;;;;;;;3.15;0.40;;;11.40;99.90;;;;;;5091595;28;20113;-71
2023/10/16 09:15:29;;;;;;;7.13;1.05;;;11.60;99.90;;;;;;5071646;28;20036;-72
2023/10/16 09:17:55;;;;;;;1.73;0.20;;;11.70;99.90;;;;;;5068538;28;20066;-72
2023/10/16 09:20:32;;;;;;;0.90;0.22;;;11.70;99.90;;;;;;5092756;28;20043;-72
2023/10/16 09:23:06;;;;;;;1.90;0.20;;;11.90;99.90;;;;;;5072332;28;20078;-71
2023/10/16 09:25:31;;;;;;;6.25;0.55;;;11.90;99.90;;;;;;5091165;28;20457;-71
2023/10/16 09:27:57;;;;;;;6.13;0.70;;;11.80;99.90;;;;;;5071490;28;20056;-71
2023/10/16 09:30:23;;;;;;;0.93;0.20;;;11.90;99.90;;;;;;5088908;28;20502;-71
2023/10/16 09:32:51;;;;;;;1.52;0.20;;;11.80;99.90;;;;;;5087666;28;20417;-71
2023/10/16 09:35:26;;;;;;;2.50;0.10;;;11.80;99.90;;;;;;5066081;28;20054;-71
2023/10/16 09:37:52;;;;;;;0.85;0.13;;;11.80;99.90;;;;;;5071865;28;20048;-71
2023/10/16 09:43:06;;;;;;;1.17;0.40;;;11.90;99.90;;;;;;5086115;28;20073;-72
2023/10/16 09:45:33;;;;;;;0.85;0.10;;;12.00;99.90;;;;;;5088894;28;20043;-71
2023/10/16 09:48:07;;;;;;;0.65;0.20;;;12.00;99.90;;;;;;5074186;28;20724;-71
2023/10/16 09:50:37;;;;;;;3.60;0.10;;;12.10;99.90;;;;;;5071440;28;20132;-71
2023/10/16 09:53:07;;;;;;;2.00;0.70;;;12.10;99.90;;;;;;5070035;28;20052;-72
2023/10/16 09:55:44;;;;;;;1.17;0.40;;;12.10;99.90;;;;;;5091543;28;20059;-70
2023/10/16 09:58:11;;;;;;;0.35;0.17;;;12.10;99.90;;;;;;5089398;28;20110;-71
2023/10/16 10:00:40;;;;;;;1.45;0.10;;;12.20;99.90;;;;;;5073522;28;20085;-71
2023/10/16 10:03:07;;;;;;;3.58;0.17;;;12.20;99.90;;;;;;5089877;28;20024;-71
2023/10/16 10:05:55;;;;;;;0.65;0.10;;;12.20;99.90;;;;;;5090877;28;20139;-71
2023/10/16 10:08:52;;;;;;;1.25;0.20;;;12.20;99.90;;;;;;5070628;28;20493;-70
2023/10/16 10:11:38;;;;;;;1.02;0.10;;;12.30;99.90;;;;;;5068281;28;20043;-72
2023/10/16 10:14:11;;;;;;;2.38;0.20;;;12.30;99.90;;;;;;5084888;28;20063;-70
2023/10/16 10:16:46;;;;;;;0.68;0.10;;;12.30;99.90;;;;;;5076289;28;20161;-70
2023/10/16 10:19:24;;;;;;;4.80;0.50;;;12.40;99.90;;;;;;5071789;28;20044;-70
2023/10/16 10:21:53;;;;;;;0.90;0.10;;;12.40;99.90;;;;;;5071257;28;20059;-70
2023/10/16 10:24:20;;;;;;;3.20;0.15;;;12.40;99.90;;;;;;5089171;28;20036;-71
2023/10/16 10:26:50;;;;;;;0.52;0.20;;;12.40;99.90;;;;;;5075850;28;20397;-71
2023/10/16 10:29:16;;;;;;;1.25;0.17;;;12.40;99.90;;;;;;5072144;28;20071;-70
2023/10/16 10:31:48;;;;;;;1.55;0.20;;;12.40;99.90;;;;;;5074248;28;20084;-71
2023/10/16 10:34:27;;;;;;;1.42;0.10;;;12.40;99.90;;;;;;5092168;28;20504;-71
2023/10/16 10:36:53;;;;;;;7.50;0.52;;;12.40;99.90;;;;;;5074727;28;20032;-71
2023/10/16 10:39:22;;;;;;;2.63;0.20;;;12.40;99.90;;;;;;5073064;28;20118;-71
2023/10/16 10:41:54;;;;;;;3.33;0.20;;;12.40;99.90;;;;;;5090343;27;20051;-71
2023/10/16 10:44:29;;;;;;;0.45;0.10;;;12.40;99.90;;;;;;5076848;28;20059;-72
2023/10/16 10:46:55;;;;;;;3.25;0.20;;;12.40;99.90;;;;;;5095167;28;20122;-71
2023/10/16 10:49:36;;;;;;;0.10;0.10;;;12.40;99.90;;;;;;5092372;28;20050;-72
2023/10/16 10:52:01;;;;;;;;;;;12.40;99.90;;;;;;5090191;28;20124;-71
2023/10/16 10:54:27;;;;;;;0.95;0.40;;;12.40;99.90;;;;;;5079984;28;19912;-71
2023/10/16 10:56:59;;;;;;;2.15;0.55;;;12.40;99.90;;;;;;5078478;28;20051;-71
2023/10/16 10:59:41;;;;;;;0.75;0.13;;;12.40;99.90;;;;;;5090852;28;20121;-72
2023/10/16 11:04:47;;;;;;;2.40;0.05;;;12.50;99.90;;;;;;5092515;28;20024;-71
2023/10/16 11:07:23;;;;;;;2.33;0.10;;;12.50;99.90;;;;;;5075460;28;20039;-71
2023/10/16 11:09:51;;;;;;;2.97;0.17;;;12.50;99.90;;;;;;5091899;28;20031;-70
2023/10/16 11:12:16;;;;;;;1.15;0.10;;;12.60;99.90;;;;;;5092802;28;20040;-70
2023/10/16 11:14:42;;;;;;;0.68;0.30;;;12.60;99.90;;;;;;5077337;28;20031;-72
2023/10/16 11:17:08;;;;;;;0.60;0.10;;;12.60;99.90;;;;;;5071653;28;20108;-71
2023/10/16 11:19:47;;;;;;;2.42;0.30;;;12.60;99.90;;;;;;5090674;28;20051;-72
2023/10/16 11:22:20;;;;;;;1.27;0.28;;;12.60;99.90;;;;;;5075814;28;20036;-71
2023/10/16 11:24:47;;;;;;;2.15;0.28;;;12.80;99.90;;;;;;5076432;28;20038;-72
2023/10/16 11:27:14;;;;;;;3.30;0.20;;;13.00;99.90;;;;;;5075745;28;20428;-70
2023/10/16 11:29:42;;;;;;;2.63;0.10;;;13.00;99.90;;;;;;5091662;28;20767;-72
2023/10/16 11:32:13;;;;;;;0.47;0.20;;;12.90;99.90;;;;;;5074859;28;20461;-71
2023/10/16 11:34:50;;;;;;;2.15;0.10;;;12.90;99.90;;;;;;5075579;28;20152;-71
2023/10/16 11:37:21;;;;;;;4.82;0.20;;;12.90;99.90;;;;;;5072634;28;20405;-70
2023/10/16 11:39:48;;;;;;;4.30;0.20;;;12.90;99.90;;;;;;5092196;28;20036;-72
2023/10/16 11:42:14;;;;;;;3.90;0.20;;;13.00;99.90;;;;;;5093706;28;20066;-71
2023/10/16 11:44:41;;;;;;;1.67;0.30;;;13.10;99.90;;;;;;5093906;28;20044;-71
2023/10/16 11:47:16;;;;;;;1.48;0.55;;;13.10;99.90;;;;;;5089350;28;20039;-72
2023/10/16 11:49:53;;;;;;;3.50;0.20;;;13.10;99.90;;;;;;5077266;28;20032;-72
2023/10/16 11:52:19;;;;;;;0.70;0.00;;;13.20;99.90;;;;;;5094911;28;20059;-71
2023/10/16 11:54:46;;;;;;;1.98;0.65;;;13.10;99.90;;;;;;5075769;28;20293;-71
2023/10/16 11:57:14;;;;;;;3.13;0.10;;;13.10;99.90;;;;;;5077881;28;20093;-70
2023/10/16 11:59:40;;;;;;;4.38;0.10;;;13.00;99.90;;;;;;5094669;28;20040;-71
2023/10/16 12:02:12;;;;;;;1.13;0.28;;;13.00;99.90;;;;;;5069750;28;20051;-71
2023/10/16 12:04:42;;;;;;;0.63;0.15;;;13.00;99.90;;;;;;5071422;28;20028;-72
2023/10/16 12:07:08;;;;;;;2.78;0.20;;;12.90;99.90;;;;;;5075796;28;20468;-70
2023/10/16 12:09:38;;;;;;;0.88;0.10;;;12.90;99.90;;;;;;5093745;28;20168;-72
2023/10/16 12:12:06;;;;;;;0.98;0.20;;;12.80;99.90;;;;;;5092955;28;20028;-70
2023/10/16 12:14:37;;;;;;;1.70;0.20;;;12.80;99.90;;;;;;5072896;28;20124;-70
2023/10/16 12:17:06;;;;;;;3.70;0.17;;;12.80;99.90;;;;;;5078702;28;20046;-71
2023/10/16 12:19:33;;;;;;;2.75;0.45;;;12.80;99.90;;;;;;5075095;28;20036;-70
2023/10/16 12:22:00;;;;;;;1.58;0.17;;;12.80;99.90;;;;;;5072378;28;20636;-71
2023/10/16 12:24:26;;;;;;;0.73;0.10;;;12.90;99.90;;;;;;5095949;28;20061;-70
2023/10/16 12:26:52;;;;;;;0.88;0.43;;;12.90;99.90;;;;;;5095292;28;20093;-72
2023/10/16 12:29:18;;;;;;;4.00;0.20;;;12.90;99.90;;;;;;5072890;28;20040;-72
2023/10/16 12:31:44;;;;;;;1.60;0.10;;;13.00;99.90;;;;;;5079444;28;20549;-72
2023/10/16 12:34:11;;;;;;;1.38;0.15;;;13.00;99.90;;;;;;5079222;28;20036;-71
2023/10/16 12:36:42;;;;;;;2.50;0.20;;;13.00;99.90;;;;;;5074593;28;20035;-71
2023/10/16 12:39:16;;;;;;;2.63;0.40;;;13.00;99.90;;;;;;5089461;28;20036;-71
2023/10/16 12:41:44;;;;;;;1.65;0.15;;;13.00;99.90;;;;;;5091001;28;20040;-71
2023/10/16 12:44:11;;;;;;;2.42;0.17;;;13.10;99.90;;;;;;5092623;28;20035;-72
2023/10/16 12:46:37;;;;;;;3.15;0.20;;;13.10;99.90;;;;;;5073485;28;20054;-72
2023/10/16 12:49:06;;;;;;;1.77;0.40;;;13.20;99.90;;;;;;5073316;28;20035;-72
2023/10/16 12:51:34;;;;;;;1.63;0.52;;;13.20;99.90;;;;;;5082985;28;20039;-72
2023/10/16 12:54:03;;;;;;;1.88;0.60;;;13.20;99.90;;;;;;5090903;28;20036;-71
2023/10/16 12:56:31;;;;;;;2.58;0.20;;;13.20;99.90;;;;;;5088471;28;20032;-71
2023/10/16 12:58:57;;;;;;;2.75;0.13;;;13.20;99.90;;;;;;5081886;28;20044;-72
2023/10/16 13:01:23;;;;;;;3.80;0.20;;;13.20;99.90;;;;;;5096211;28;20036;-72
2023/10/16 13:03:49;;;;;;;5.88;0.25;;;13.20;99.90;;;;;;5072865;28;20402;-71
2023/10/16 13:06:14;;;;;;;4.93;0.63;;;13.20;99.90;;;;;;5095571;28;20455;-72
2023/10/16 13:08:41;;;;;;;4.22;0.57;;;13.20;99.90;;;;;;5078628;28;20202;-72
2023/10/16 13:11:07;;;;;;;3.00;0.40;;;13.20;99.90;;;;;;5069847;28;20066;-71
2023/10/16 13:13:34;;;;;;;1.98;0.85;;;13.20;99.90;;;;;;5089680;28;20028;-72
2023/10/16 13:16:00;;;;;;;1.85;0.30;;;13.20;99.90;;;;;;5084457;28;20498;-72
2023/10/16 13:18:29;;;;;;;1.42;0.20;;;13.20;99.90;;;;;;5067966;28;20043;-73
2023/10/16 13:21:06;;;;;;;2.27;0.30;;;13.20;99.90;;;;;;5090526;28;20056;-71
2023/10/16 13:23:34;;;;;;;3.13;0.30;;;13.20;99.90;;;;;;5069456;28;20310;-71
2023/10/16 13:26:01;;;;;;;2.92;0.43;;;13.10;99.90;;;;;;5071047;28;20111;-70
2023/10/16 13:28:26;;;;;;;5.60;0.50;;;13.20;99.90;;;;;;5088275;28;20044;-70
2023/10/16 13:30:52;;;;;;;4.60;0.17;;;13.20;99.90;;;;;;5074482;28;20108;-71
2023/10/16 13:33:19;;;;;;;2.75;0.30;;;13.20;99.90;;;;;;5070500;28;20051;-71
2023/10/16 13:35:44;;;;;;;2.72;0.20;;;13.20;99.90;;;;;;5072822;28;20028;-72
2023/10/16 13:38:10;;;;;;;2.17;0.28;;;13.20;99.90;;;;;;5091053;28;20039;-72
2023/10/16 13:40:36;;;;;;;1.15;0.10;;;13.20;99.90;;;;;;5074454;28;20179;-71
2023/10/16 13:43:10;;;;;;;5.03;0.32;;;13.20;99.90;;;;;;5072223;28;20044;-71
2023/10/16 13:45:37;;;;;;;1.08;0.30;;;13.20;99.90;;;;;;5091539;28;20035;-71
2023/10/16 13:48:04;;;;;;;1.92;0.55;;;13.10;99.90;;;;;;5075098;28;20556;-72
2023/10/16 13:50:30;;;;;;;2.40;0.10;;;13.00;99.90;;;;;;5070097;28;20036;-73
2023/10/16 13:52:56;;;;;;;2.08;0.35;;;13.10;99.90;;;;;;5088542;28;20521;-73
2023/10/16 13:55:24;;;;;;;2.38;0.68;;;13.00;99.90;;;;;;5074108;28;20051;-71
2023/10/16 13:57:51;;;;;;;4.15;0.30;;;12.90;99.90;;;;;;5071478;28;20398;-70
2023/10/16 14:05:46;;;;;;;2.40;0.50;;;13.00;99.90;;;;;;5092381;28;20031;-71
2023/10/16 14:08:15;;;;;;;0.55;0.00;;;12.90;99.90;;;;;;5072649;28;20060;-72
2023/10/16 14:10:52;;;;;;;1.95;0.93;;;12.90;99.90;;;;;;5088721;28;20441;-71
2023/10/16 14:13:18;;;;;;;2.70;0.40;;;12.90;99.90;;;;;;5072186;28;20121;-71
2023/10/16 14:15:51;;;;;;;2.88;0.43;;;12.90;99.90;;;;;;5091396;28;20040;-71
2023/10/16 14:18:21;;;;;;;1.40;0.28;;;12.90;99.90;;;;;;5068880;28;20046;-72
2023/10/16 14:20:47;;;;;;;2.92;0.75;;;12.90;99.90;;;;;;5068944;28;20052;-72
2023/10/16 14:23:18;;;;;;;2.92;0.20;;;12.90;99.90;;;;;;5075411;28;20093;-71
2023/10/16 14:25:48;;;;;;;1.23;0.05;;;12.90;99.90;;;;;;5087788;28;20024;-71
2023/10/16 14:28:40;;;;;;;2.70;0.10;;;12.90;99.90;;;;;;5075110;28;20024;-71
2023/10/16 14:31:09;;;;;;;0.63;0.20;;;12.90;99.90;;;;;;5087306;28;20032;-71
2023/10/16 14:33:36;;;;;;;1.95;0.30;;;12.90;99.90;;;;;;5090218;28;20043;-71
2023/10/16 14:36:09;;;;;;;1.40;0.30;;;12.80;99.90;;;;;;5095094;28;20020;-71
2023/10/16 14:38:37;;;;;;;3.83;0.22;;;12.80;99.90;;;;;;5091247;28;20044;-71
2023/10/16 14:41:06;;;;;;;1.33;0.35;;;12.80;99.90;;;;;;5095471;28;20031;-71
2023/10/16 14:43:34;;;;;;;1.55;0.25;;;12.80;99.90;;;;;;5075109;28;20424;-71
2023/10/16 14:46:03;;;;;;;2.38;0.45;;;12.80;99.90;;;;;;5098844;28;20031;-72
2023/10/16 14:48:29;;;;;;;0.88;0.30;;;12.70;99.90;;;;;;5092172;28;20032;-71
2023/10/16 14:50:55;;;;;;;2.05;0.15;;;12.70;99.90;;;;;;5079373;28;20451;-71
2023/10/16 14:53:20;;;;;;;3.90;0.30;;;12.60;99.90;;;;;;5091940;28;20114;-71
2023/10/16 14:55:48;;;;;;;1.25;0.10;;;12.70;99.90;;;;;;5073439;28;20043;-71
2023/10/16 14:58:14;;;;;;;1.80;0.40;;;12.60;99.90;;;;;;5085621;28;20479;-72
2023/10/16 15:00:44;;;;;;;5.75;0.63;;;12.60;99.90;;;;;;5071015;28;20029;-71
2023/10/16 15:03:13;;;;;;;;;;;12.50;99.90;;;;;;5079539;28;20128;-71
2023/10/16 15:05:49;;;;;;;4.28;0.63;;;12.40;99.90;;;;;;5066384;28;20370;-71
2023/10/16 15:08:15;;;;;;;0.55;0.15;;;12.40;99.90;;;;;;5075947;28;20180;-72
2023/10/16 15:10:45;;;;;;;0.75;0.20;;;12.40;99.90;;;;;;5069230;28;20122;-71
2023/10/16 15:13:12;;;;;;;1.45;0.22;;;12.40;99.90;;;;;;5066241;28;20048;-71
2023/10/16 15:15:39;;;;;;;4.03;0.20;;;12.40;99.90;;;;;;5068942;28;20036;-71
2023/10/16 15:18:07;;;;;;;1.30;0.45;;;12.30;99.90;;;;;;5073028;28;20063;-71
2023/10/16 15:20:33;;;;;;;4.50;0.43;;;12.30;99.90;;;;;;5072994;28;20040;-72
2023/10/16 15:23:00;;;;;;;4.32;0.30;;;12.30;99.90;;;;;;5093856;28;20035;-71
2023/10/16 15:25:25;;;;;;;2.20;0.28;;;12.30;99.90;;;;;;5079178;28;20127;-71
2023/10/16 15:27:51;;;;;;;4.45;0.55;;;12.30;99.90;;;;;;5078008;28;20146;-71